sensor_id;sensor_type;location;lat;lon;timestamp;P1;durP1;ratioP1;P2;durP2;ratioP2
70148;SDS011;57514;52.164;5.282;2022-09-09T00:09:46;6.07;;;2.50;;
70148;SDS011;57514;52.164;5.282;2022-09-09T00:12:17;5.30;;;2.10;;
70148;SDS011;57514;52.164;5.282;2022-09-09T00:15:02;6.13;;;2.75;;
70148;SDS011;57514;52.164;5.282;2022-09-09T00:17:47;7.80;;;2.47;;
70148;SDS011;57514;52.164;5.282;2022-09-09T00:23:22;6.55;;;2.60;;
70148;SDS011;57514;52.164;5.282;2022-09-09T00:31:34;7.10;;;2.67;;
70148;SDS011;57514;52.164;5.282;2022-09-09T00:34:11;8.90;;;2.53;;
70148;SDS011;57514;52.164;5.282;2022-09-09T00:36:40;5.13;;;2.38;;
70148;SDS011;57514;52.164;5.282;2022-09-09T00:39:12;11.13;;;2.75;;
70148;SDS011;57514;52.164;5.282;2022-09-09T00:47:50;8.52;;;2.60;;
70148;SDS011;57514;52.164;5.282;2022-09-09T00:53:51;6.70;;;2.58;;
70148;SDS011;57514;52.164;5.282;2022-09-09T00:56:46;7.30;;;2.75;;
70148;SDS011;57514;52.164;5.282;2022-09-09T00:59:45;8.52;;;2.30;;
70148;SDS011;57514;52.164;5.282;2022-09-09T01:02:15;11.52;;;3.00;;
70148;SDS011;57514;52.164;5.282;2022-09-09T01:04:44;6.43;;;2.53;;
70148;SDS011;57514;52.164;5.282;2022-09-09T01:07:15;7.72;;;3.15;;
70148;SDS011;57514;52.164;5.282;2022-09-09T01:09:51;7.82;;;3.30;;
70148;SDS011;57514;52.164;5.282;2022-09-09T01:15:01;9.80;;;2.97;;
70148;SDS011;57514;52.164;5.282;2022-09-09T01:17:51;8.07;;;2.92;;
70148;SDS011;57514;52.164;5.282;2022-09-09T01:20:25;9.50;;;3.13;;
70148;SDS011;57514;52.164;5.282;2022-09-09T01:28:30;7.70;;;2.85;;
70148;SDS011;57514;52.164;5.282;2022-09-09T01:31:05;10.40;;;3.45;;
70148;SDS011;57514;52.164;5.282;2022-09-09T01:33:41;8.20;;;3.03;;
70148;SDS011;57514;52.164;5.282;2022-09-09T01:36:09;11.35;;;4.15;;
70148;SDS011;57514;52.164;5.282;2022-09-09T01:38:47;10.48;;;3.83;;
70148;SDS011;57514;52.164;5.282;2022-09-09T01:41:15;10.30;;;3.65;;
70148;SDS011;57514;52.164;5.282;2022-09-09T01:43:48;8.38;;;3.20;;
70148;SDS011;57514;52.164;5.282;2022-09-09T01:46:15;8.18;;;3.25;;
70148;SDS011;57514;52.164;5.282;2022-09-09T01:48:43;8.32;;;3.35;;
70148;SDS011;57514;52.164;5.282;2022-09-09T01:51:11;9.57;;;3.10;;
70148;SDS011;57514;52.164;5.282;2022-09-09T01:53:39;9.32;;;3.30;;
70148;SDS011;57514;52.164;5.282;2022-09-09T01:56:22;9.15;;;3.13;;
70148;SDS011;57514;52.164;5.282;2022-09-09T01:59:03;9.90;;;3.60;;
70148;SDS011;57514;52.164;5.282;2022-09-09T02:04:43;10.82;;;4.20;;
70148;SDS011;57514;52.164;5.282;2022-09-09T02:09:50;11.70;;;3.65;;
70148;SDS011;57514;52.164;5.282;2022-09-09T02:12:23;11.45;;;3.97;;
70148;SDS011;57514;52.164;5.282;2022-09-09T02:14:56;9.90;;;3.67;;
70148;SDS011;57514;52.164;5.282;2022-09-09T02:17:36;10.73;;;4.05;;
70148;SDS011;57514;52.164;5.282;2022-09-09T02:20:12;9.27;;;3.25;;
70148;SDS011;57514;52.164;5.282;2022-09-09T02:22:53;10.93;;;3.75;;
70148;SDS011;57514;52.164;5.282;2022-09-09T02:25:23;10.30;;;3.97;;
70148;SDS011;57514;52.164;5.282;2022-09-09T02:27:56;9.45;;;3.67;;
70148;SDS011;57514;52.164;5.282;2022-09-09T02:30:27;10.80;;;4.18;;
70148;SDS011;57514;52.164;5.282;2022-09-09T02:32:57;8.75;;;3.53;;
70148;SDS011;57514;52.164;5.282;2022-09-09T02:35:39;9.68;;;3.53;;
70148;SDS011;57514;52.164;5.282;2022-09-09T02:38:08;10.85;;;3.75;;
70148;SDS011;57514;52.164;5.282;2022-09-09T02:40:47;11.48;;;4.07;;
70148;SDS011;57514;52.164;5.282;2022-09-09T02:43:15;9.82;;;3.65;;
70148;SDS011;57514;52.164;5.282;2022-09-09T02:54:15;9.00;;;3.33;;
70148;SDS011;57514;52.164;5.282;2022-09-09T02:56:51;10.50;;;3.90;;
70148;SDS011;57514;52.164;5.282;2022-09-09T02:59:30;9.18;;;3.47;;
70148;SDS011;57514;52.164;5.282;2022-09-09T03:01:57;11.25;;;3.60;;
70148;SDS011;57514;52.164;5.282;2022-09-09T03:04:26;8.13;;;3.50;;
70148;SDS011;57514;52.164;5.282;2022-09-09T03:06:55;11.57;;;3.88;;
70148;SDS011;57514;52.164;5.282;2022-09-09T03:09:23;9.80;;;3.95;;
70148;SDS011;57514;52.164;5.282;2022-09-09T03:11:52;10.32;;;3.30;;
70148;SDS011;57514;52.164;5.282;2022-09-09T03:14:21;11.63;;;4.00;;
70148;SDS011;57514;52.164;5.282;2022-09-09T03:16:51;8.90;;;4.35;;
70148;SDS011;57514;52.164;5.282;2022-09-09T03:19:18;9.80;;;3.85;;
70148;SDS011;57514;52.164;5.282;2022-09-09T03:21:46;10.27;;;4.47;;
70148;SDS011;57514;52.164;5.282;2022-09-09T03:24:13;11.77;;;4.25;;
70148;SDS011;57514;52.164;5.282;2022-09-09T03:26:41;12.32;;;4.18;;
70148;SDS011;57514;52.164;5.282;2022-09-09T03:29:13;9.23;;;4.28;;
70148;SDS011;57514;52.164;5.282;2022-09-09T03:31:41;11.25;;;4.68;;
70148;SDS011;57514;52.164;5.282;2022-09-09T03:34:09;11.73;;;4.43;;
70148;SDS011;57514;52.164;5.282;2022-09-09T03:36:36;11.50;;;4.32;;
70148;SDS011;57514;52.164;5.282;2022-09-09T03:39:04;11.70;;;4.38;;
70148;SDS011;57514;52.164;5.282;2022-09-09T03:41:31;11.80;;;4.70;;
70148;SDS011;57514;52.164;5.282;2022-09-09T03:44:00;12.52;;;4.75;;
70148;SDS011;57514;52.164;5.282;2022-09-09T03:46:30;11.80;;;4.88;;
70148;SDS011;57514;52.164;5.282;2022-09-09T03:48:58;22.10;;;4.53;;
70148;SDS011;57514;52.164;5.282;2022-09-09T03:51:25;10.95;;;4.32;;
70148;SDS011;57514;52.164;5.282;2022-09-09T03:53:53;10.27;;;4.45;;
70148;SDS011;57514;52.164;5.282;2022-09-09T03:56:21;11.13;;;4.68;;
70148;SDS011;57514;52.164;5.282;2022-09-09T03:58:49;11.93;;;4.80;;
70148;SDS011;57514;52.164;5.282;2022-09-09T04:01:17;13.48;;;4.63;;
70148;SDS011;57514;52.164;5.282;2022-09-09T04:03:45;11.88;;;4.50;;
70148;SDS011;57514;52.164;5.282;2022-09-09T04:06:13;12.20;;;4.68;;
70148;SDS011;57514;52.164;5.282;2022-09-09T04:08:44;8.93;;;3.28;;
70148;SDS011;57514;52.164;5.282;2022-09-09T04:11:11;10.73;;;4.07;;
70148;SDS011;57514;52.164;5.282;2022-09-09T04:13:39;11.15;;;4.75;;
70148;SDS011;57514;52.164;5.282;2022-09-09T04:16:10;12.10;;;4.82;;
70148;SDS011;57514;52.164;5.282;2022-09-09T04:18:41;12.95;;;4.32;;
70148;SDS011;57514;52.164;5.282;2022-09-09T04:21:08;12.15;;;4.95;;
70148;SDS011;57514;52.164;5.282;2022-09-09T04:23:36;11.73;;;4.75;;
70148;SDS011;57514;52.164;5.282;2022-09-09T04:26:04;11.15;;;4.60;;
70148;SDS011;57514;52.164;5.282;2022-09-09T04:28:33;11.50;;;4.63;;
70148;SDS011;57514;52.164;5.282;2022-09-09T04:31:04;12.32;;;4.35;;
70148;SDS011;57514;52.164;5.282;2022-09-09T04:33:33;11.98;;;5.03;;
70148;SDS011;57514;52.164;5.282;2022-09-09T04:36:05;11.85;;;4.90;;
70148;SDS011;57514;52.164;5.282;2022-09-09T04:38:34;11.77;;;4.82;;
70148;SDS011;57514;52.164;5.282;2022-09-09T04:41:01;12.75;;;5.13;;
70148;SDS011;57514;52.164;5.282;2022-09-09T04:43:30;10.73;;;4.93;;
70148;SDS011;57514;52.164;5.282;2022-09-09T04:45:58;10.60;;;4.22;;
70148;SDS011;57514;52.164;5.282;2022-09-09T04:48:25;11.52;;;4.82;;
70148;SDS011;57514;52.164;5.282;2022-09-09T04:50:57;13.77;;;4.80;;
70148;SDS011;57514;52.164;5.282;2022-09-09T04:53:25;12.57;;;4.53;;
70148;SDS011;57514;52.164;5.282;2022-09-09T04:56:00;12.15;;;4.57;;
70148;SDS011;57514;52.164;5.282;2022-09-09T04:58:29;12.85;;;4.05;;
70148;SDS011;57514;52.164;5.282;2022-09-09T05:01:02;10.75;;;4.10;;
70148;SDS011;57514;52.164;5.282;2022-09-09T05:03:29;11.90;;;4.72;;
70148;SDS011;57514;52.164;5.282;2022-09-09T05:06:03;12.40;;;4.63;;
70148;SDS011;57514;52.164;5.282;2022-09-09T05:08:30;13.23;;;5.05;;
70148;SDS011;57514;52.164;5.282;2022-09-09T05:10:57;11.60;;;4.55;;
70148;SDS011;57514;52.164;5.282;2022-09-09T05:13:26;11.27;;;4.28;;
70148;SDS011;57514;52.164;5.282;2022-09-09T05:15:56;12.13;;;3.80;;
70148;SDS011;57514;52.164;5.282;2022-09-09T05:18:24;10.25;;;4.20;;
70148;SDS011;57514;52.164;5.282;2022-09-09T05:20:51;11.82;;;5.05;;
70148;SDS011;57514;52.164;5.282;2022-09-09T05:23:19;12.75;;;4.38;;
70148;SDS011;57514;52.164;5.282;2022-09-09T05:25:54;11.70;;;4.70;;
70148;SDS011;57514;52.164;5.282;2022-09-09T05:28:26;11.98;;;4.35;;
70148;SDS011;57514;52.164;5.282;2022-09-09T05:30:59;14.05;;;4.57;;
70148;SDS011;57514;52.164;5.282;2022-09-09T05:33:32;13.27;;;4.25;;
70148;SDS011;57514;52.164;5.282;2022-09-09T05:36:00;11.50;;;4.07;;
70148;SDS011;57514;52.164;5.282;2022-09-09T05:38:29;12.32;;;4.53;;
70148;SDS011;57514;52.164;5.282;2022-09-09T05:40:57;9.80;;;3.97;;
70148;SDS011;57514;52.164;5.282;2022-09-09T05:43:27;13.25;;;4.85;;
70148;SDS011;57514;52.164;5.282;2022-09-09T05:48:22;10.63;;;3.83;;
70148;SDS011;57514;52.164;5.282;2022-09-09T05:50:53;11.80;;;4.13;;
70148;SDS011;57514;52.164;5.282;2022-09-09T05:53:23;11.93;;;3.58;;
70148;SDS011;57514;52.164;5.282;2022-09-09T05:55:50;12.40;;;4.40;;
70148;SDS011;57514;52.164;5.282;2022-09-09T05:58:18;11.57;;;4.40;;
70148;SDS011;57514;52.164;5.282;2022-09-09T06:00:45;12.32;;;4.50;;
70148;SDS011;57514;52.164;5.282;2022-09-09T06:03:13;13.13;;;3.95;;
70148;SDS011;57514;52.164;5.282;2022-09-09T06:05:40;12.05;;;3.40;;
70148;SDS011;57514;52.164;5.282;2022-09-09T06:08:07;11.85;;;3.45;;
70148;SDS011;57514;52.164;5.282;2022-09-09T06:10:34;9.82;;;3.35;;
70148;SDS011;57514;52.164;5.282;2022-09-09T06:13:01;10.77;;;3.58;;
70148;SDS011;57514;52.164;5.282;2022-09-09T06:15:28;9.93;;;3.03;;
70148;SDS011;57514;52.164;5.282;2022-09-09T06:17:56;6.85;;;3.00;;
70148;SDS011;57514;52.164;5.282;2022-09-09T06:20:24;8.93;;;2.83;;
70148;SDS011;57514;52.164;5.282;2022-09-09T06:22:51;8.63;;;2.80;;
70148;SDS011;57514;52.164;5.282;2022-09-09T06:25:18;9.30;;;3.42;;
70148;SDS011;57514;52.164;5.282;2022-09-09T06:27:48;10.70;;;3.00;;
70148;SDS011;57514;52.164;5.282;2022-09-09T06:30:15;10.07;;;3.05;;
70148;SDS011;57514;52.164;5.282;2022-09-09T06:32:43;8.18;;;2.72;;
70148;SDS011;57514;52.164;5.282;2022-09-09T06:35:10;9.20;;;2.83;;
70148;SDS011;57514;52.164;5.282;2022-09-09T06:37:37;7.68;;;2.38;;
70148;SDS011;57514;52.164;5.282;2022-09-09T06:40:07;10.77;;;2.80;;
70148;SDS011;57514;52.164;5.282;2022-09-09T06:42:35;6.40;;;2.33;;
70148;SDS011;57514;52.164;5.282;2022-09-09T06:45:21;10.00;;;2.35;;
70148;SDS011;57514;52.164;5.282;2022-09-09T06:47:54;9.25;;;3.40;;
70148;SDS011;57514;52.164;5.282;2022-09-09T06:50:22;8.95;;;2.38;;
70148;SDS011;57514;52.164;5.282;2022-09-09T06:52:49;7.53;;;2.60;;
70148;SDS011;57514;52.164;5.282;2022-09-09T06:55:16;10.70;;;2.63;;
70148;SDS011;57514;52.164;5.282;2022-09-09T06:57:43;7.07;;;2.30;;
70148;SDS011;57514;52.164;5.282;2022-09-09T07:00:18;5.60;;;2.28;;
70148;SDS011;57514;52.164;5.282;2022-09-09T07:02:45;8.10;;;2.15;;
70148;SDS011;57514;52.164;5.282;2022-09-09T07:05:13;9.65;;;2.70;;
70148;SDS011;57514;52.164;5.282;2022-09-09T07:07:42;11.07;;;2.30;;
70148;SDS011;57514;52.164;5.282;2022-09-09T07:10:11;7.90;;;2.22;;
70148;SDS011;57514;52.164;5.282;2022-09-09T07:12:38;7.90;;;2.20;;
70148;SDS011;57514;52.164;5.282;2022-09-09T07:15:09;10.52;;;2.25;;
70148;SDS011;57514;52.164;5.282;2022-09-09T07:17:37;8.43;;;2.55;;
70148;SDS011;57514;52.164;5.282;2022-09-09T07:20:04;8.73;;;2.17;;
70148;SDS011;57514;52.164;5.282;2022-09-09T07:22:31;7.45;;;2.15;;
70148;SDS011;57514;52.164;5.282;2022-09-09T07:24:59;8.98;;;2.30;;
70148;SDS011;57514;52.164;5.282;2022-09-09T07:27:28;8.15;;;2.08;;
70148;SDS011;57514;52.164;5.282;2022-09-09T07:29:55;7.13;;;2.20;;
70148;SDS011;57514;52.164;5.282;2022-09-09T07:32:27;7.28;;;2.92;;
70148;SDS011;57514;52.164;5.282;2022-09-09T07:34:54;5.75;;;1.77;;
70148;SDS011;57514;52.164;5.282;2022-09-09T07:37:22;4.57;;;1.85;;
70148;SDS011;57514;52.164;5.282;2022-09-09T07:39:51;8.82;;;2.50;;
70148;SDS011;57514;52.164;5.282;2022-09-09T07:42:18;11.10;;;2.55;;
70148;SDS011;57514;52.164;5.282;2022-09-09T07:44:45;7.03;;;2.00;;
70148;SDS011;57514;52.164;5.282;2022-09-09T07:47:14;9.65;;;2.63;;
70148;SDS011;57514;52.164;5.282;2022-09-09T07:52:17;6.35;;;2.40;;
70148;SDS011;57514;52.164;5.282;2022-09-09T07:54:51;11.40;;;2.70;;
70148;SDS011;57514;52.164;5.282;2022-09-09T07:57:18;11.13;;;2.90;;
70148;SDS011;57514;52.164;5.282;2022-09-09T07:59:49;8.25;;;2.25;;
70148;SDS011;57514;52.164;5.282;2022-09-09T08:02:16;9.15;;;2.53;;
70148;SDS011;57514;52.164;5.282;2022-09-09T08:04:43;8.77;;;2.80;;
70148;SDS011;57514;52.164;5.282;2022-09-09T08:07:12;7.82;;;2.45;;
70148;SDS011;57514;52.164;5.282;2022-09-09T08:09:47;6.68;;;2.20;;
70148;SDS011;57514;52.164;5.282;2022-09-09T08:12:34;9.60;;;2.10;;
70148;SDS011;57514;52.164;5.282;2022-09-09T08:15:02;8.25;;;2.55;;
70148;SDS011;57514;52.164;5.282;2022-09-09T08:17:32;9.35;;;2.55;;
70148;SDS011;57514;52.164;5.282;2022-09-09T08:20:03;7.63;;;2.30;;
70148;SDS011;57514;52.164;5.282;2022-09-09T08:22:31;7.18;;;2.05;;
70148;SDS011;57514;52.164;5.282;2022-09-09T08:24:58;9.60;;;2.55;;
70148;SDS011;57514;52.164;5.282;2022-09-09T08:27:25;10.77;;;2.72;;
70148;SDS011;57514;52.164;5.282;2022-09-09T08:29:53;9.77;;;2.60;;
70148;SDS011;57514;52.164;5.282;2022-09-09T08:32:23;10.48;;;2.72;;
70148;SDS011;57514;52.164;5.282;2022-09-09T08:34:49;14.88;;;3.05;;
70148;SDS011;57514;52.164;5.282;2022-09-09T08:37:21;11.13;;;3.08;;
70148;SDS011;57514;52.164;5.282;2022-09-09T08:39:48;8.75;;;2.30;;
70148;SDS011;57514;52.164;5.282;2022-09-09T08:48:42;8.35;;;2.58;;
70148;SDS011;57514;52.164;5.282;2022-09-09T08:51:29;12.85;;;2.67;;
70148;SDS011;57514;52.164;5.282;2022-09-09T08:53:59;8.07;;;2.10;;
70148;SDS011;57514;52.164;5.282;2022-09-09T08:56:31;9.25;;;2.55;;
70148;SDS011;57514;52.164;5.282;2022-09-09T08:59:02;6.88;;;2.30;;
70148;SDS011;57514;52.164;5.282;2022-09-09T09:02:37;6.45;;;1.73;;
70148;SDS011;57514;52.164;5.282;2022-09-09T09:07:42;7.18;;;1.92;;
70148;SDS011;57514;52.164;5.282;2022-09-09T09:13:15;12.00;;;2.58;;
70148;SDS011;57514;52.164;5.282;2022-09-09T09:15:53;7.55;;;3.00;;
70148;SDS011;57514;52.164;5.282;2022-09-09T09:18:24;10.00;;;2.63;;
70148;SDS011;57514;52.164;5.282;2022-09-09T09:21:56;9.77;;;2.30;;
70148;SDS011;57514;52.164;5.282;2022-09-09T09:23:55;7.88;;;2.60;;
70148;SDS011;57514;52.164;5.282;2022-09-09T09:26:29;8.10;;;2.40;;
70148;SDS011;57514;52.164;5.282;2022-09-09T09:28:59;9.00;;;2.55;;
70148;SDS011;57514;52.164;5.282;2022-09-09T09:31:32;7.82;;;2.28;;
70148;SDS011;57514;52.164;5.282;2022-09-09T09:33:58;7.55;;;2.25;;
70148;SDS011;57514;52.164;5.282;2022-09-09T09:39:30;9.65;;;2.58;;
70148;SDS011;57514;52.164;5.282;2022-09-09T09:42:22;9.25;;;2.42;;
70148;SDS011;57514;52.164;5.282;2022-09-09T09:44:52;8.35;;;2.20;;
70148;SDS011;57514;52.164;5.282;2022-09-09T09:47:21;10.90;;;2.35;;
70148;SDS011;57514;52.164;5.282;2022-09-09T09:50:17;7.50;;;2.40;;
70148;SDS011;57514;52.164;5.282;2022-09-09T09:52:55;10.15;;;2.60;;
70148;SDS011;57514;52.164;5.282;2022-09-09T09:55:26;10.40;;;2.67;;
70148;SDS011;57514;52.164;5.282;2022-09-09T09:58:00;6.30;;;2.13;;
70148;SDS011;57514;52.164;5.282;2022-09-09T10:00:31;11.27;;;3.05;;
70148;SDS011;57514;52.164;5.282;2022-09-09T10:03:20;9.20;;;3.25;;
70148;SDS011;57514;52.164;5.282;2022-09-09T10:05:53;12.88;;;3.05;;
70148;SDS011;57514;52.164;5.282;2022-09-09T10:08:25;11.88;;;2.97;;
70148;SDS011;57514;52.164;5.282;2022-09-09T10:16:34;11.70;;;3.30;;
70148;SDS011;57514;52.164;5.282;2022-09-09T10:19:33;11.15;;;3.40;;
70148;SDS011;57514;52.164;5.282;2022-09-09T10:27:23;10.32;;;3.17;;
70148;SDS011;57514;52.164;5.282;2022-09-09T10:30:06;11.15;;;2.85;;
70148;SDS011;57514;52.164;5.282;2022-09-09T10:35:14;7.13;;;2.38;;
70148;SDS011;57514;52.164;5.282;2022-09-09T10:38:17;10.98;;;2.88;;
70148;SDS011;57514;52.164;5.282;2022-09-09T10:43:35;10.35;;;2.85;;
70148;SDS011;57514;52.164;5.282;2022-09-09T10:52:00;11.50;;;3.10;;
70148;SDS011;57514;52.164;5.282;2022-09-09T10:54:54;11.30;;;2.92;;
70148;SDS011;57514;52.164;5.282;2022-09-09T11:05:27;10.80;;;2.70;;
70148;SDS011;57514;52.164;5.282;2022-09-09T11:08:19;7.85;;;2.72;;
70148;SDS011;57514;52.164;5.282;2022-09-09T11:13:32;10.07;;;3.08;;
70148;SDS011;57514;52.164;5.282;2022-09-09T11:16:50;9.00;;;2.47;;
70148;SDS011;57514;52.164;5.282;2022-09-09T11:18:52;14.40;;;3.22;;
70148;SDS011;57514;52.164;5.282;2022-09-09T11:21:29;8.38;;;2.85;;
70148;SDS011;57514;52.164;5.282;2022-09-09T11:24:08;8.73;;;2.50;;
70148;SDS011;57514;52.164;5.282;2022-09-09T11:40:25;9.50;;;2.35;;
70148;SDS011;57514;52.164;5.282;2022-09-09T11:43:04;9.25;;;2.63;;
70148;SDS011;57514;52.164;5.282;2022-09-09T11:45:39;5.75;;;2.22;;
70148;SDS011;57514;52.164;5.282;2022-09-09T11:48:23;6.30;;;2.00;;
70148;SDS011;57514;52.164;5.282;2022-09-09T11:50:58;7.28;;;1.50;;
70148;SDS011;57514;52.164;5.282;2022-09-09T11:53:26;4.57;;;1.52;;
70148;SDS011;57514;52.164;5.282;2022-09-09T11:56:00;6.35;;;2.28;;
70148;SDS011;57514;52.164;5.282;2022-09-09T11:58:43;4.55;;;1.80;;
70148;SDS011;57514;52.164;5.282;2022-09-09T12:01:29;5.88;;;2.00;;
70148;SDS011;57514;52.164;5.282;2022-09-09T12:06:30;8.30;;;2.58;;
70148;SDS011;57514;52.164;5.282;2022-09-09T12:09:05;8.27;;;2.78;;
70148;SDS011;57514;52.164;5.282;2022-09-09T12:11:38;8.02;;;2.88;;
70148;SDS011;57514;52.164;5.282;2022-09-09T12:16:45;9.35;;;3.05;;
70148;SDS011;57514;52.164;5.282;2022-09-09T12:19:19;13.45;;;3.50;;
70148;SDS011;57514;52.164;5.282;2022-09-09T12:22:04;9.68;;;3.05;;
70148;SDS011;57514;52.164;5.282;2022-09-09T12:24:47;7.63;;;2.22;;
70148;SDS011;57514;52.164;5.282;2022-09-09T12:27:24;4.80;;;1.92;;
70148;SDS011;57514;52.164;5.282;2022-09-09T12:30:08;5.45;;;1.88;;
70148;SDS011;57514;52.164;5.282;2022-09-09T12:32:36;6.88;;;2.30;;
70148;SDS011;57514;52.164;5.282;2022-09-09T12:35:09;9.15;;;2.88;;
70148;SDS011;57514;52.164;5.282;2022-09-09T12:38:04;6.45;;;2.65;;
70148;SDS011;57514;52.164;5.282;2022-09-09T12:40:34;7.88;;;3.03;;
70148;SDS011;57514;52.164;5.282;2022-09-09T12:43:19;10.15;;;3.10;;
70148;SDS011;57514;52.164;5.282;2022-09-09T12:45:49;8.35;;;3.10;;
70148;SDS011;57514;52.164;5.282;2022-09-09T12:48:31;8.88;;;3.08;;
70148;SDS011;57514;52.164;5.282;2022-09-09T12:51:25;10.98;;;3.42;;
70148;SDS011;57514;52.164;5.282;2022-09-09T12:53:54;8.55;;;2.70;;
70148;SDS011;57514;52.164;5.282;2022-09-09T12:56:23;6.18;;;2.28;;
70148;SDS011;57514;52.164;5.282;2022-09-09T12:58:53;8.35;;;2.75;;
70148;SDS011;57514;52.164;5.282;2022-09-09T13:01:25;10.60;;;3.22;;
70148;SDS011;57514;52.164;5.282;2022-09-09T13:03:55;4.47;;;2.15;;
70148;SDS011;57514;52.164;5.282;2022-09-09T13:06:22;8.27;;;2.97;;
70148;SDS011;57514;52.164;5.282;2022-09-09T13:08:54;7.60;;;2.65;;
70148;SDS011;57514;52.164;5.282;2022-09-09T13:11:26;8.90;;;2.92;;
70148;SDS011;57514;52.164;5.282;2022-09-09T13:14:02;8.30;;;2.88;;
70148;SDS011;57514;52.164;5.282;2022-09-09T13:16:30;9.05;;;2.80;;
70148;SDS011;57514;52.164;5.282;2022-09-09T13:19:36;7.35;;;2.30;;
70148;SDS011;57514;52.164;5.282;2022-09-09T13:21:58;7.30;;;2.85;;
70148;SDS011;57514;52.164;5.282;2022-09-09T13:24:30;5.70;;;2.13;;
70148;SDS011;57514;52.164;5.282;2022-09-09T13:27:02;4.45;;;2.33;;
70148;SDS011;57514;52.164;5.282;2022-09-09T13:29:31;9.77;;;2.88;;
70148;SDS011;57514;52.164;5.282;2022-09-09T13:32:05;10.48;;;2.58;;
70148;SDS011;57514;52.164;5.282;2022-09-09T13:34:39;8.55;;;3.58;;
70148;SDS011;57514;52.164;5.282;2022-09-09T13:37:06;7.38;;;2.83;;
70148;SDS011;57514;52.164;5.282;2022-09-09T13:39:52;7.38;;;2.67;;
70148;SDS011;57514;52.164;5.282;2022-09-09T13:42:27;7.40;;;2.85;;
70148;SDS011;57514;52.164;5.282;2022-09-09T13:44:56;6.35;;;2.67;;
70148;SDS011;57514;52.164;5.282;2022-09-09T13:47:31;6.40;;;2.53;;
70148;SDS011;57514;52.164;5.282;2022-09-09T13:50:18;10.95;;;3.63;;
70148;SDS011;57514;52.164;5.282;2022-09-09T13:52:47;9.77;;;3.00;;
70148;SDS011;57514;52.164;5.282;2022-09-09T13:55:16;8.75;;;3.40;;
70148;SDS011;57514;52.164;5.282;2022-09-09T13:57:52;12.68;;;2.83;;
70148;SDS011;57514;52.164;5.282;2022-09-09T14:00:21;8.93;;;3.60;;
70148;SDS011;57514;52.164;5.282;2022-09-09T14:02:50;9.57;;;3.83;;
70148;SDS011;57514;52.164;5.282;2022-09-09T14:05:17;8.10;;;3.38;;
70148;SDS011;57514;52.164;5.282;2022-09-09T14:07:44;8.32;;;3.10;;
70148;SDS011;57514;52.164;5.282;2022-09-09T14:10:17;7.82;;;2.28;;
70148;SDS011;57514;52.164;5.282;2022-09-09T14:12:44;9.57;;;3.80;;
70148;SDS011;57514;52.164;5.282;2022-09-09T14:15:12;11.43;;;3.45;;
70148;SDS011;57514;52.164;5.282;2022-09-09T14:17:40;11.45;;;3.75;;
70148;SDS011;57514;52.164;5.282;2022-09-09T14:20:07;9.73;;;3.78;;
70148;SDS011;57514;52.164;5.282;2022-09-09T14:22:35;10.15;;;3.78;;
70148;SDS011;57514;52.164;5.282;2022-09-09T14:25:05;11.25;;;4.10;;
70148;SDS011;57514;52.164;5.282;2022-09-09T14:27:32;11.77;;;4.18;;
70148;SDS011;57514;52.164;5.282;2022-09-09T14:30:00;17.38;;;4.03;;
70148;SDS011;57514;52.164;5.282;2022-09-09T14:32:27;12.38;;;4.43;;
70148;SDS011;57514;52.164;5.282;2022-09-09T14:34:53;12.32;;;4.65;;
70148;SDS011;57514;52.164;5.282;2022-09-09T14:37:21;10.38;;;4.75;;
70148;SDS011;57514;52.164;5.282;2022-09-09T14:39:48;13.35;;;4.00;;
70148;SDS011;57514;52.164;5.282;2022-09-09T14:42:16;12.70;;;5.00;;
70148;SDS011;57514;52.164;5.282;2022-09-09T14:44:43;10.38;;;3.58;;
70148;SDS011;57514;52.164;5.282;2022-09-09T14:47:10;11.40;;;4.28;;
70148;SDS011;57514;52.164;5.282;2022-09-09T14:49:37;11.45;;;4.40;;
70148;SDS011;57514;52.164;5.282;2022-09-09T14:52:11;11.23;;;4.30;;
70148;SDS011;57514;52.164;5.282;2022-09-09T14:54:39;11.98;;;4.63;;
70148;SDS011;57514;52.164;5.282;2022-09-09T14:57:06;10.20;;;4.30;;
70148;SDS011;57514;52.164;5.282;2022-09-09T14:59:33;10.52;;;3.72;;
70148;SDS011;57514;52.164;5.282;2022-09-09T15:02:00;8.55;;;3.22;;
70148;SDS011;57514;52.164;5.282;2022-09-09T15:04:30;9.55;;;3.47;;
70148;SDS011;57514;52.164;5.282;2022-09-09T15:09:26;7.70;;;3.42;;
70148;SDS011;57514;52.164;5.282;2022-09-09T15:11:56;7.53;;;3.20;;
70148;SDS011;57514;52.164;5.282;2022-09-09T15:14:25;7.43;;;3.33;;
70148;SDS011;57514;52.164;5.282;2022-09-09T15:16:53;8.63;;;3.00;;
70148;SDS011;57514;52.164;5.282;2022-09-09T15:19:20;7.82;;;2.90;;
70148;SDS011;57514;52.164;5.282;2022-09-09T15:21:47;5.50;;;2.60;;
70148;SDS011;57514;52.164;5.282;2022-09-09T15:24:15;5.57;;;2.30;;
70148;SDS011;57514;52.164;5.282;2022-09-09T15:26:42;6.63;;;2.67;;
70148;SDS011;57514;52.164;5.282;2022-09-09T15:29:09;4.07;;;2.00;;
70148;SDS011;57514;52.164;5.282;2022-09-09T15:31:36;4.60;;;2.10;;
70148;SDS011;57514;52.164;5.282;2022-09-09T15:34:04;5.35;;;2.40;;
70148;SDS011;57514;52.164;5.282;2022-09-09T15:36:40;6.63;;;2.47;;
70148;SDS011;57514;52.164;5.282;2022-09-09T15:39:10;5.55;;;2.72;;
70148;SDS011;57514;52.164;5.282;2022-09-09T15:41:39;3.75;;;1.67;;
70148;SDS011;57514;52.164;5.282;2022-09-09T15:44:06;6.63;;;2.17;;
70148;SDS011;57514;52.164;5.282;2022-09-09T15:46:33;6.30;;;2.58;;
70148;SDS011;57514;52.164;5.282;2022-09-09T15:51:44;5.60;;;1.90;;
70148;SDS011;57514;52.164;5.282;2022-09-09T15:54:16;5.95;;;2.30;;
70148;SDS011;57514;52.164;5.282;2022-09-09T15:56:44;3.47;;;1.33;;
70148;SDS011;57514;52.164;5.282;2022-09-09T15:59:12;6.50;;;1.88;;
70148;SDS011;57514;52.164;5.282;2022-09-09T16:01:40;6.32;;;1.60;;
70148;SDS011;57514;52.164;5.282;2022-09-09T16:04:08;5.65;;;2.30;;
70148;SDS011;57514;52.164;5.282;2022-09-09T16:06:35;6.90;;;2.10;;
70148;SDS011;57514;52.164;5.282;2022-09-09T16:09:03;6.35;;;2.05;;
70148;SDS011;57514;52.164;5.282;2022-09-09T16:11:32;4.90;;;1.90;;
70148;SDS011;57514;52.164;5.282;2022-09-09T16:14:01;3.40;;;1.25;;
70148;SDS011;57514;52.164;5.282;2022-09-09T16:16:30;7.80;;;2.00;;
70148;SDS011;57514;52.164;5.282;2022-09-09T16:18:58;4.30;;;2.20;;
70148;SDS011;57514;52.164;5.282;2022-09-09T16:21:28;3.92;;;1.42;;
70148;SDS011;57514;52.164;5.282;2022-09-09T16:24:04;7.28;;;2.40;;
70148;SDS011;57514;52.164;5.282;2022-09-09T16:26:34;5.88;;;2.13;;
70148;SDS011;57514;52.164;5.282;2022-09-09T16:29:02;6.25;;;2.50;;
70148;SDS011;57514;52.164;5.282;2022-09-09T16:31:30;3.95;;;2.00;;
70148;SDS011;57514;52.164;5.282;2022-09-09T16:33:58;7.32;;;2.80;;
70148;SDS011;57514;52.164;5.282;2022-09-09T16:36:26;6.18;;;2.50;;
70148;SDS011;57514;52.164;5.282;2022-09-09T16:39:04;4.57;;;2.17;;
70148;SDS011;57514;52.164;5.282;2022-09-09T16:41:32;4.20;;;2.17;;
70148;SDS011;57514;52.164;5.282;2022-09-09T16:44:01;5.70;;;2.22;;
70148;SDS011;57514;52.164;5.282;2022-09-09T16:46:30;5.93;;;2.40;;
70148;SDS011;57514;52.164;5.282;2022-09-09T16:48:59;5.60;;;2.05;;
70148;SDS011;57514;52.164;5.282;2022-09-09T16:51:27;5.60;;;2.30;;
70148;SDS011;57514;52.164;5.282;2022-09-09T16:53:57;4.93;;;2.10;;
70148;SDS011;57514;52.164;5.282;2022-09-09T16:56:26;5.00;;;2.42;;
70148;SDS011;57514;52.164;5.282;2022-09-09T16:58:55;8.70;;;2.67;;
70148;SDS011;57514;52.164;5.282;2022-09-09T17:01:24;8.25;;;2.53;;
70148;SDS011;57514;52.164;5.282;2022-09-09T17:03:58;3.63;;;2.10;;
70148;SDS011;57514;52.164;5.282;2022-09-09T17:06:27;7.07;;;2.15;;
70148;SDS011;57514;52.164;5.282;2022-09-09T17:09:01;8.35;;;2.50;;
70148;SDS011;57514;52.164;5.282;2022-09-09T17:11:30;8.88;;;2.90;;
70148;SDS011;57514;52.164;5.282;2022-09-09T17:13:57;8.80;;;2.70;;
70148;SDS011;57514;52.164;5.282;2022-09-09T17:16:27;8.70;;;3.10;;